sensor_id;sensor_type;location;lat;lon;timestamp;P1;durP1;ratioP1;P2;durP2;ratioP2
8397;SDS011;4236;54.504;9.588;2023-05-07T00:00:20;31.77;;;28.90;;
8397;SDS011;4236;54.504;9.588;2023-05-07T00:02:50;33.20;;;29.77;;
8397;SDS011;4236;54.504;9.588;2023-05-07T00:05:18;32.83;;;29.90;;
8397;SDS011;4236;54.504;9.588;2023-05-07T00:07:46;31.50;;;28.70;;
8397;SDS011;4236;54.504;9.588;2023-05-07T00:10:14;30.57;;;27.97;;
8397;SDS011;4236;54.504;9.588;2023-05-07T00:12:42;33.87;;;30.40;;
8397;SDS011;4236;54.504;9.588;2023-05-07T00:15:10;32.57;;;29.73;;
8397;SDS011;4236;54.504;9.588;2023-05-07T00:17:38;32.33;;;29.13;;
8397;SDS011;4236;54.504;9.588;2023-05-07T00:20:07;34.13;;;29.87;;
8397;SDS011;4236;54.504;9.588;2023-05-07T00:22:36;32.87;;;29.80;;
8397;SDS011;4236;54.504;9.588;2023-05-07T00:25:04;32.70;;;29.70;;
8397;SDS011;4236;54.504;9.588;2023-05-07T00:27:32;34.03;;;30.57;;
8397;SDS011;4236;54.504;9.588;2023-05-07T00:30:00;34.57;;;29.73;;
8397;SDS011;4236;54.504;9.588;2023-05-07T00:32:28;32.57;;;29.57;;
8397;SDS011;4236;54.504;9.588;2023-05-07T00:34:55;34.03;;;30.90;;
8397;SDS011;4236;54.504;9.588;2023-05-07T00:37:24;34.03;;;29.90;;
8397;SDS011;4236;54.504;9.588;2023-05-07T00:39:52;32.60;;;29.80;;
8397;SDS011;4236;54.504;9.588;2023-05-07T00:42:20;35.57;;;32.10;;
8397;SDS011;4236;54.504;9.588;2023-05-07T00:44:47;36.70;;;32.77;;
8397;SDS011;4236;54.504;9.588;2023-05-07T00:47:15;36.80;;;32.90;;
8397;SDS011;4236;54.504;9.588;2023-05-07T00:49:44;35.47;;;31.67;;
8397;SDS011;4236;54.504;9.588;2023-05-07T00:52:13;36.13;;;32.50;;
8397;SDS011;4236;54.504;9.588;2023-05-07T00:54:44;36.93;;;33.23;;
8397;SDS011;4236;54.504;9.588;2023-05-07T00:57:12;37.83;;;32.80;;
8397;SDS011;4236;54.504;9.588;2023-05-07T00:59:40;39.57;;;31.80;;
8397;SDS011;4236;54.504;9.588;2023-05-07T01:02:08;36.77;;;33.33;;
8397;SDS011;4236;54.504;9.588;2023-05-07T01:04:36;35.63;;;32.23;;
8397;SDS011;4236;54.504;9.588;2023-05-07T01:07:05;35.63;;;32.13;;
8397;SDS011;4236;54.504;9.588;2023-05-07T01:09:33;35.00;;;31.57;;
8397;SDS011;4236;54.504;9.588;2023-05-07T01:12:03;38.47;;;31.30;;
8397;SDS011;4236;54.504;9.588;2023-05-07T01:14:32;35.90;;;31.30;;
8397;SDS011;4236;54.504;9.588;2023-05-07T01:17:00;35.87;;;32.50;;
8397;SDS011;4236;54.504;9.588;2023-05-07T01:19:28;33.23;;;30.23;;
8397;SDS011;4236;54.504;9.588;2023-05-07T01:21:59;35.47;;;31.50;;
8397;SDS011;4236;54.504;9.588;2023-05-07T01:24:32;37.90;;;33.40;;
8397;SDS011;4236;54.504;9.588;2023-05-07T01:27:00;35.20;;;32.00;;
8397;SDS011;4236;54.504;9.588;2023-05-07T01:29:29;35.97;;;32.47;;
8397;SDS011;4236;54.504;9.588;2023-05-07T01:31:57;34.43;;;31.33;;
8397;SDS011;4236;54.504;9.588;2023-05-07T01:34:27;34.10;;;30.90;;
8397;SDS011;4236;54.504;9.588;2023-05-07T01:36:59;36.43;;;33.13;;
8397;SDS011;4236;54.504;9.588;2023-05-07T01:39:28;34.30;;;30.60;;
8397;SDS011;4236;54.504;9.588;2023-05-07T01:41:58;34.07;;;31.13;;
8397;SDS011;4236;54.504;9.588;2023-05-07T01:44:26;33.17;;;29.97;;
8397;SDS011;4236;54.504;9.588;2023-05-07T01:46:55;32.63;;;30.10;;
8397;SDS011;4236;54.504;9.588;2023-05-07T01:49:24;33.07;;;30.40;;
8397;SDS011;4236;54.504;9.588;2023-05-07T01:51:52;32.17;;;29.57;;
8397;SDS011;4236;54.504;9.588;2023-05-07T01:54:20;32.83;;;30.13;;
8397;SDS011;4236;54.504;9.588;2023-05-07T01:56:55;33.40;;;30.33;;
8397;SDS011;4236;54.504;9.588;2023-05-07T01:59:25;32.07;;;29.33;;
8397;SDS011;4236;54.504;9.588;2023-05-07T02:01:52;31.90;;;29.30;;
8397;SDS011;4236;54.504;9.588;2023-05-07T02:04:21;32.73;;;30.03;;
8397;SDS011;4236;54.504;9.588;2023-05-07T02:06:49;34.33;;;31.37;;
8397;SDS011;4236;54.504;9.588;2023-05-07T02:09:17;33.00;;;30.30;;
8397;SDS011;4236;54.504;9.588;2023-05-07T02:11:45;33.63;;;30.33;;
8397;SDS011;4236;54.504;9.588;2023-05-07T02:14:12;32.57;;;30.23;;
8397;SDS011;4236;54.504;9.588;2023-05-07T02:16:42;32.63;;;30.13;;
8397;SDS011;4236;54.504;9.588;2023-05-07T02:19:10;33.43;;;30.93;;
8397;SDS011;4236;54.504;9.588;2023-05-07T02:21:38;35.13;;;32.07;;
8397;SDS011;4236;54.504;9.588;2023-05-07T02:24:06;34.23;;;31.30;;
8397;SDS011;4236;54.504;9.588;2023-05-07T02:26:34;33.13;;;30.13;;
8397;SDS011;4236;54.504;9.588;2023-05-07T02:29:01;34.07;;;30.87;;
8397;SDS011;4236;54.504;9.588;2023-05-07T02:31:29;34.60;;;31.63;;
8397;SDS011;4236;54.504;9.588;2023-05-07T02:33:58;35.70;;;32.90;;
8397;SDS011;4236;54.504;9.588;2023-05-07T02:36:25;34.17;;;31.37;;
8397;SDS011;4236;54.504;9.588;2023-05-07T02:38:54;34.83;;;31.97;;
8397;SDS011;4236;54.504;9.588;2023-05-07T02:41:22;32.67;;;30.17;;
8397;SDS011;4236;54.504;9.588;2023-05-07T02:43:49;30.93;;;28.77;;
8397;SDS011;4236;54.504;9.588;2023-05-07T02:46:17;31.70;;;29.17;;
8397;SDS011;4236;54.504;9.588;2023-05-07T02:48:45;34.53;;;31.80;;
8397;SDS011;4236;54.504;9.588;2023-05-07T02:51:14;33.03;;;30.33;;
8397;SDS011;4236;54.504;9.588;2023-05-07T02:53:41;33.80;;;31.00;;
8397;SDS011;4236;54.504;9.588;2023-05-07T02:56:09;34.43;;;31.70;;
8397;SDS011;4236;54.504;9.588;2023-05-07T02:58:37;33.20;;;30.07;;
8397;SDS011;4236;54.504;9.588;2023-05-07T03:01:06;32.80;;;30.40;;
8397;SDS011;4236;54.504;9.588;2023-05-07T03:03:34;33.93;;;31.10;;
8397;SDS011;4236;54.504;9.588;2023-05-07T03:06:02;32.60;;;30.30;;
8397;SDS011;4236;54.504;9.588;2023-05-07T03:08:31;35.37;;;32.37;;
8397;SDS011;4236;54.504;9.588;2023-05-07T03:10:59;33.57;;;30.47;;
8397;SDS011;4236;54.504;9.588;2023-05-07T03:13:27;33.40;;;30.60;;
8397;SDS011;4236;54.504;9.588;2023-05-07T03:15:54;34.47;;;31.80;;
8397;SDS011;4236;54.504;9.588;2023-05-07T03:18:22;35.67;;;32.20;;
8397;SDS011;4236;54.504;9.588;2023-05-07T03:20:51;32.90;;;30.43;;
8397;SDS011;4236;54.504;9.588;2023-05-07T03:23:19;32.67;;;29.93;;
8397;SDS011;4236;54.504;9.588;2023-05-07T03:25:51;33.00;;;30.60;;
8397;SDS011;4236;54.504;9.588;2023-05-07T03:28:18;32.77;;;30.33;;
8397;SDS011;4236;54.504;9.588;2023-05-07T03:30:46;32.17;;;29.57;;
8397;SDS011;4236;54.504;9.588;2023-05-07T03:33:14;32.60;;;30.10;;
8397;SDS011;4236;54.504;9.588;2023-05-07T03:35:41;33.70;;;31.03;;
8397;SDS011;4236;54.504;9.588;2023-05-07T03:38:09;31.60;;;29.37;;
8397;SDS011;4236;54.504;9.588;2023-05-07T03:40:36;32.50;;;29.90;;
8397;SDS011;4236;54.504;9.588;2023-05-07T03:43:06;31.90;;;29.60;;
8397;SDS011;4236;54.504;9.588;2023-05-07T03:45:34;30.07;;;27.97;;
8397;SDS011;4236;54.504;9.588;2023-05-07T03:48:02;30.20;;;28.23;;
8397;SDS011;4236;54.504;9.588;2023-05-07T03:50:30;32.57;;;30.27;;
8397;SDS011;4236;54.504;9.588;2023-05-07T03:52:57;30.13;;;28.13;;
8397;SDS011;4236;54.504;9.588;2023-05-07T03:55:25;31.80;;;29.50;;
8397;SDS011;4236;54.504;9.588;2023-05-07T03:57:53;31.07;;;28.90;;
8397;SDS011;4236;54.504;9.588;2023-05-07T04:00:22;31.33;;;28.90;;
8397;SDS011;4236;54.504;9.588;2023-05-07T04:02:49;31.03;;;28.47;;
8397;SDS011;4236;54.504;9.588;2023-05-07T04:05:17;32.53;;;29.83;;
8397;SDS011;4236;54.504;9.588;2023-05-07T04:07:45;29.53;;;27.53;;
8397;SDS011;4236;54.504;9.588;2023-05-07T04:10:12;30.60;;;28.60;;
8397;SDS011;4236;54.504;9.588;2023-05-07T04:12:40;31.23;;;29.07;;
8397;SDS011;4236;54.504;9.588;2023-05-07T04:15:08;31.93;;;29.70;;
8397;SDS011;4236;54.504;9.588;2023-05-07T04:17:38;31.30;;;29.10;;
8397;SDS011;4236;54.504;9.588;2023-05-07T04:20:06;31.77;;;29.27;;
8397;SDS011;4236;54.504;9.588;2023-05-07T04:22:36;30.93;;;28.83;;
8397;SDS011;4236;54.504;9.588;2023-05-07T04:25:04;30.27;;;28.37;;
8397;SDS011;4236;54.504;9.588;2023-05-07T04:27:34;31.60;;;29.43;;
8397;SDS011;4236;54.504;9.588;2023-05-07T04:30:01;31.37;;;29.23;;
8397;SDS011;4236;54.504;9.588;2023-05-07T04:32:30;29.87;;;27.70;;
8397;SDS011;4236;54.504;9.588;2023-05-07T04:34:59;31.57;;;29.30;;
8397;SDS011;4236;54.504;9.588;2023-05-07T04:37:26;28.77;;;26.80;;
8397;SDS011;4236;54.504;9.588;2023-05-07T04:39:54;30.00;;;28.00;;
8397;SDS011;4236;54.504;9.588;2023-05-07T04:42:22;29.40;;;27.50;;
8397;SDS011;4236;54.504;9.588;2023-05-07T04:44:52;30.70;;;28.70;;
8397;SDS011;4236;54.504;9.588;2023-05-07T04:47:20;29.00;;;27.20;;
8397;SDS011;4236;54.504;9.588;2023-05-07T04:49:48;30.17;;;28.07;;
8397;SDS011;4236;54.504;9.588;2023-05-07T04:52:17;29.50;;;27.50;;
8397;SDS011;4236;54.504;9.588;2023-05-07T04:54:45;30.30;;;28.30;;
8397;SDS011;4236;54.504;9.588;2023-05-07T04:57:13;30.77;;;28.67;;
8397;SDS011;4236;54.504;9.588;2023-05-07T04:59:41;31.50;;;29.47;;
8397;SDS011;4236;54.504;9.588;2023-05-07T05:02:09;31.03;;;29.03;;
8397;SDS011;4236;54.504;9.588;2023-05-07T05:04:37;29.27;;;27.47;;
8397;SDS011;4236;54.504;9.588;2023-05-07T05:07:05;30.13;;;28.03;;
8397;SDS011;4236;54.504;9.588;2023-05-07T05:09:34;29.83;;;27.90;;
8397;SDS011;4236;54.504;9.588;2023-05-07T05:12:02;29.23;;;27.43;;
8397;SDS011;4236;54.504;9.588;2023-05-07T05:14:30;31.17;;;29.07;;
8397;SDS011;4236;54.504;9.588;2023-05-07T05:16:57;29.00;;;27.13;;
8397;SDS011;4236;54.504;9.588;2023-05-07T05:19:25;30.47;;;28.37;;
8397;SDS011;4236;54.504;9.588;2023-05-07T05:21:53;28.83;;;27.03;;
8397;SDS011;4236;54.504;9.588;2023-05-07T05:24:21;29.13;;;27.23;;
8397;SDS011;4236;54.504;9.588;2023-05-07T05:26:51;29.60;;;27.67;;
8397;SDS011;4236;54.504;9.588;2023-05-07T05:29:20;27.83;;;26.10;;
8397;SDS011;4236;54.504;9.588;2023-05-07T05:31:48;27.77;;;26.10;;
8397;SDS011;4236;54.504;9.588;2023-05-07T05:34:15;28.57;;;26.77;;
8397;SDS011;4236;54.504;9.588;2023-05-07T05:36:45;25.37;;;23.87;;
8397;SDS011;4236;54.504;9.588;2023-05-07T05:39:13;26.50;;;25.00;;
8397;SDS011;4236;54.504;9.588;2023-05-07T05:41:41;27.10;;;24.93;;
8397;SDS011;4236;54.504;9.588;2023-05-07T05:44:10;27.30;;;25.70;;
8397;SDS011;4236;54.504;9.588;2023-05-07T05:46:38;27.77;;;25.77;;
8397;SDS011;4236;54.504;9.588;2023-05-07T05:49:06;27.30;;;25.80;;
8397;SDS011;4236;54.504;9.588;2023-05-07T05:51:33;27.33;;;25.73;;
8397;SDS011;4236;54.504;9.588;2023-05-07T05:54:02;27.00;;;25.40;;
8397;SDS011;4236;54.504;9.588;2023-05-07T05:56:30;27.00;;;25.37;;
8397;SDS011;4236;54.504;9.588;2023-05-07T05:58:58;26.70;;;25.10;;
8397;SDS011;4236;54.504;9.588;2023-05-07T06:01:27;26.27;;;24.77;;
8397;SDS011;4236;54.504;9.588;2023-05-07T06:03:55;27.00;;;25.40;;
8397;SDS011;4236;54.504;9.588;2023-05-07T06:06:23;28.20;;;26.53;;
8397;SDS011;4236;54.504;9.588;2023-05-07T06:08:51;27.50;;;25.70;;
8397;SDS011;4236;54.504;9.588;2023-05-07T06:11:19;27.80;;;25.87;;
8397;SDS011;4236;54.504;9.588;2023-05-07T06:13:47;28.27;;;26.40;;
8397;SDS011;4236;54.504;9.588;2023-05-07T06:16:15;29.10;;;27.30;;
8397;SDS011;4236;54.504;9.588;2023-05-07T06:18:44;29.07;;;26.80;;
8397;SDS011;4236;54.504;9.588;2023-05-07T06:21:13;28.10;;;26.40;;
8397;SDS011;4236;54.504;9.588;2023-05-07T06:23:41;28.97;;;27.17;;
8397;SDS011;4236;54.504;9.588;2023-05-07T06:26:09;28.77;;;26.90;;
8397;SDS011;4236;54.504;9.588;2023-05-07T06:28:37;28.73;;;26.87;;
8397;SDS011;4236;54.504;9.588;2023-05-07T06:31:13;27.67;;;25.87;;
8397;SDS011;4236;54.504;9.588;2023-05-07T06:33:42;26.90;;;25.40;;
8397;SDS011;4236;54.504;9.588;2023-05-07T06:36:13;29.00;;;27.10;;
8397;SDS011;4236;54.504;9.588;2023-05-07T06:38:41;27.97;;;25.97;;
8397;SDS011;4236;54.504;9.588;2023-05-07T06:41:09;28.87;;;26.97;;
8397;SDS011;4236;54.504;9.588;2023-05-07T06:43:36;28.20;;;26.43;;
8397;SDS011;4236;54.504;9.588;2023-05-07T06:46:04;27.80;;;25.70;;
8397;SDS011;4236;54.504;9.588;2023-05-07T06:48:32;27.47;;;25.73;;
8397;SDS011;4236;54.504;9.588;2023-05-07T06:51:00;27.70;;;26.07;;
8397;SDS011;4236;54.504;9.588;2023-05-07T06:53:29;27.10;;;25.40;;
8397;SDS011;4236;54.504;9.588;2023-05-07T06:55:56;27.70;;;26.00;;
8397;SDS011;4236;54.504;9.588;2023-05-07T06:58:24;28.37;;;26.47;;
8397;SDS011;4236;54.504;9.588;2023-05-07T07:00:52;28.00;;;26.30;;
8397;SDS011;4236;54.504;9.588;2023-05-07T07:03:20;27.43;;;25.90;;
8397;SDS011;4236;54.504;9.588;2023-05-07T07:05:47;29.00;;;27.10;;
8397;SDS011;4236;54.504;9.588;2023-05-07T07:08:18;29.20;;;27.33;;
8397;SDS011;4236;54.504;9.588;2023-05-07T07:10:48;28.37;;;26.57;;
8397;SDS011;4236;54.504;9.588;2023-05-07T07:13:16;27.20;;;25.60;;
8397;SDS011;4236;54.504;9.588;2023-05-07T07:15:44;27.97;;;26.20;;
8397;SDS011;4236;54.504;9.588;2023-05-07T07:18:12;28.10;;;26.20;;
8397;SDS011;4236;54.504;9.588;2023-05-07T07:20:39;26.33;;;24.83;;
8397;SDS011;4236;54.504;9.588;2023-05-07T07:23:07;26.50;;;24.80;;
8397;SDS011;4236;54.504;9.588;2023-05-07T07:25:35;28.17;;;26.50;;
8397;SDS011;4236;54.504;9.588;2023-05-07T07:28:05;28.30;;;26.63;;
8397;SDS011;4236;54.504;9.588;2023-05-07T07:30:33;28.00;;;26.10;;
8397;SDS011;4236;54.504;9.588;2023-05-07T07:33:00;26.93;;;25.13;;
8397;SDS011;4236;54.504;9.588;2023-05-07T07:35:29;27.10;;;25.23;;
8397;SDS011;4236;54.504;9.588;2023-05-07T07:37:58;27.00;;;25.20;;
8397;SDS011;4236;54.504;9.588;2023-05-07T07:40:26;27.00;;;25.37;;
8397;SDS011;4236;54.504;9.588;2023-05-07T07:42:53;27.43;;;25.63;;
8397;SDS011;4236;54.504;9.588;2023-05-07T07:45:22;25.47;;;24.17;;
8397;SDS011;4236;54.504;9.588;2023-05-07T07:47:50;26.60;;;25.03;;
8397;SDS011;4236;54.504;9.588;2023-05-07T07:50:18;25.70;;;24.20;;
8397;SDS011;4236;54.504;9.588;2023-05-07T07:53:05;25.37;;;24.07;;
8397;SDS011;4236;54.504;9.588;2023-05-07T07:55:37;26.23;;;24.80;;
8397;SDS011;4236;54.504;9.588;2023-05-07T07:58:06;25.67;;;24.27;;
8397;SDS011;4236;54.504;9.588;2023-05-07T08:00:35;26.47;;;24.73;;
8397;SDS011;4236;54.504;9.588;2023-05-07T08:03:03;25.10;;;23.80;;
8397;SDS011;4236;54.504;9.588;2023-05-07T08:05:33;25.07;;;23.77;;
8397;SDS011;4236;54.504;9.588;2023-05-07T08:08:00;26.30;;;24.90;;
8397;SDS011;4236;54.504;9.588;2023-05-07T08:10:28;25.10;;;23.67;;
8397;SDS011;4236;54.504;9.588;2023-05-07T08:13:00;25.60;;;24.30;;
8397;SDS011;4236;54.504;9.588;2023-05-07T08:15:30;24.60;;;23.20;;
8397;SDS011;4236;54.504;9.588;2023-05-07T08:18:00;24.63;;;23.30;;
8397;SDS011;4236;54.504;9.588;2023-05-07T08:20:29;26.30;;;24.80;;
8397;SDS011;4236;54.504;9.588;2023-05-07T08:22:56;24.83;;;23.53;;
8397;SDS011;4236;54.504;9.588;2023-05-07T08:25:24;26.20;;;24.77;;
8397;SDS011;4236;54.504;9.588;2023-05-07T08:27:52;24.90;;;23.33;;
8397;SDS011;4236;54.504;9.588;2023-05-07T08:30:19;25.00;;;23.70;;
8397;SDS011;4236;54.504;9.588;2023-05-07T08:32:48;24.90;;;23.60;;
8397;SDS011;4236;54.504;9.588;2023-05-07T08:35:17;23.43;;;22.13;;
8397;SDS011;4236;54.504;9.588;2023-05-07T08:37:45;24.97;;;23.57;;
8397;SDS011;4236;54.504;9.588;2023-05-07T08:40:13;24.67;;;23.30;;
8397;SDS011;4236;54.504;9.588;2023-05-07T08:42:41;24.70;;;23.40;;
8397;SDS011;4236;54.504;9.588;2023-05-07T08:45:10;23.60;;;22.47;;
8397;SDS011;4236;54.504;9.588;2023-05-07T08:47:40;24.20;;;23.00;;
8397;SDS011;4236;54.504;9.588;2023-05-07T08:50:12;24.17;;;22.97;;
8397;SDS011;4236;54.504;9.588;2023-05-07T08:52:41;23.70;;;22.50;;
8397;SDS011;4236;54.504;9.588;2023-05-07T08:55:09;23.93;;;22.83;;
8397;SDS011;4236;54.504;9.588;2023-05-07T08:57:38;24.03;;;22.93;;
8397;SDS011;4236;54.504;9.588;2023-05-07T09:00:07;23.83;;;22.73;;
8397;SDS011;4236;54.504;9.588;2023-05-07T09:02:36;23.43;;;22.23;;
8397;SDS011;4236;54.504;9.588;2023-05-07T09:05:04;24.37;;;23.13;;
8397;SDS011;4236;54.504;9.588;2023-05-07T09:07:33;23.60;;;22.50;;
8397;SDS011;4236;54.504;9.588;2023-05-07T09:10:02;23.40;;;22.43;;
8397;SDS011;4236;54.504;9.588;2023-05-07T09:12:31;24.83;;;22.93;;
8397;SDS011;4236;54.504;9.588;2023-05-07T09:15:01;24.57;;;23.27;;
8397;SDS011;4236;54.504;9.588;2023-05-07T09:17:30;24.60;;;23.40;;
8397;SDS011;4236;54.504;9.588;2023-05-07T09:20:01;22.97;;;21.97;;
8397;SDS011;4236;54.504;9.588;2023-05-07T09:22:32;23.20;;;22.20;;
8397;SDS011;4236;54.504;9.588;2023-05-07T09:25:00;24.30;;;23.03;;
8397;SDS011;4236;54.504;9.588;2023-05-07T09:27:29;23.37;;;22.23;;
8397;SDS011;4236;54.504;9.588;2023-05-07T09:29:58;24.20;;;22.80;;
8397;SDS011;4236;54.504;9.588;2023-05-07T09:32:26;24.33;;;23.13;;
8397;SDS011;4236;54.504;9.588;2023-05-07T09:34:54;24.60;;;23.30;;
8397;SDS011;4236;54.504;9.588;2023-05-07T09:37:22;23.90;;;22.87;;
8397;SDS011;4236;54.504;9.588;2023-05-07T09:39:49;23.53;;;22.43;;
8397;SDS011;4236;54.504;9.588;2023-05-07T09:42:22;23.70;;;22.60;;
8397;SDS011;4236;54.504;9.588;2023-05-07T09:44:52;23.47;;;22.40;;
8397;SDS011;4236;54.504;9.588;2023-05-07T09:47:19;23.23;;;22.13;;
8397;SDS011;4236;54.504;9.588;2023-05-07T09:49:48;23.53;;;22.43;;
8397;SDS011;4236;54.504;9.588;2023-05-07T09:52:17;23.80;;;22.67;;
8397;SDS011;4236;54.504;9.588;2023-05-07T09:54:45;23.50;;;22.40;;
8397;SDS011;4236;54.504;9.588;2023-05-07T09:57:16;23.60;;;22.40;;
8397;SDS011;4236;54.504;9.588;2023-05-07T09:59:46;24.03;;;22.83;;
8397;SDS011;4236;54.504;9.588;2023-05-07T10:02:17;24.03;;;22.90;;
8397;SDS011;4236;54.504;9.588;2023-05-07T10:04:47;23.27;;;21.97;;
8397;SDS011;4236;54.504;9.588;2023-05-07T10:07:15;22.90;;;21.87;;
8397;SDS011;4236;54.504;9.588;2023-05-07T10:09:44;22.20;;;21.20;;
8397;SDS011;4236;54.504;9.588;2023-05-07T10:12:14;23.00;;;21.90;;
8397;SDS011;4236;54.504;9.588;2023-05-07T10:14:42;21.60;;;20.70;;
8397;SDS011;4236;54.504;9.588;2023-05-07T10:17:11;21.47;;;20.57;;
8397;SDS011;4236;54.504;9.588;2023-05-07T10:19:41;22.90;;;21.80;;
8397;SDS011;4236;54.504;9.588;2023-05-07T10:22:11;21.30;;;20.40;;
8397;SDS011;4236;54.504;9.588;2023-05-07T10:24:41;22.30;;;21.23;;
8397;SDS011;4236;54.504;9.588;2023-05-07T10:27:12;21.53;;;20.53;;
8397;SDS011;4236;54.504;9.588;2023-05-07T10:29:45;22.83;;;21.80;;
8397;SDS011;4236;54.504;9.588;2023-05-07T10:32:27;23.50;;;22.30;;
8397;SDS011;4236;54.504;9.588;2023-05-07T10:35:04;23.90;;;22.60;;
8397;SDS011;4236;54.504;9.588;2023-05-07T10:37:38;22.60;;;21.70;;
8397;SDS011;4236;54.504;9.588;2023-05-07T10:40:06;23.30;;;22.37;;
8397;SDS011;4236;54.504;9.588;2023-05-07T10:42:36;22.17;;;21.17;;
8397;SDS011;4236;54.504;9.588;2023-05-07T10:45:14;23.10;;;21.90;;
8397;SDS011;4236;54.504;9.588;2023-05-07T10:53:47;22.87;;;21.87;;
8397;SDS011;4236;54.504;9.588;2023-05-07T10:56:24;22.40;;;21.50;;
8397;SDS011;4236;54.504;9.588;2023-05-07T10:58:59;20.80;;;19.97;;
8397;SDS011;4236;54.504;9.588;2023-05-07T11:02:06;21.87;;;20.97;;
8397;SDS011;4236;54.504;9.588;2023-05-07T11:04:36;22.83;;;21.63;;
8397;SDS011;4236;54.504;9.588;2023-05-07T11:07:20;22.10;;;20.80;;
8397;SDS011;4236;54.504;9.588;2023-05-07T11:09:56;20.43;;;19.53;;
8397;SDS011;4236;54.504;9.588;2023-05-07T11:18:08;20.80;;;19.80;;
8397;SDS011;4236;54.504;9.588;2023-05-07T11:20:44;21.67;;;20.50;;
8397;SDS011;4236;54.504;9.588;2023-05-07T11:26:25;21.07;;;20.17;;
8397;SDS011;4236;54.504;9.588;2023-05-07T11:28:54;19.90;;;19.10;;
8397;SDS011;4236;54.504;9.588;2023-05-07T11:31:25;20.63;;;19.73;;
8397;SDS011;4236;54.504;9.588;2023-05-07T11:33:55;19.30;;;18.50;;
8397;SDS011;4236;54.504;9.588;2023-05-07T11:36:24;19.20;;;18.50;;
8397;SDS011;4236;54.504;9.588;2023-05-07T11:38:53;19.70;;;18.80;;
8397;SDS011;4236;54.504;9.588;2023-05-07T11:41:20;19.60;;;18.90;;
8397;SDS011;4236;54.504;9.588;2023-05-07T11:43:58;20.47;;;19.67;;
8397;SDS011;4236;54.504;9.588;2023-05-07T11:46:28;19.60;;;18.80;;
8397;SDS011;4236;54.504;9.588;2023-05-07T11:48:56;19.40;;;18.63;;
8397;SDS011;4236;54.504;9.588;2023-05-07T11:51:24;19.23;;;18.30;;
8397;SDS011;4236;54.504;9.588;2023-05-07T11:53:53;18.67;;;17.77;;
8397;SDS011;4236;54.504;9.588;2023-05-07T11:56:21;18.53;;;17.83;;
8397;SDS011;4236;54.504;9.588;2023-05-07T11:58:48;19.13;;;18.33;;
8397;SDS011;4236;54.504;9.588;2023-05-07T12:01:18;18.43;;;17.53;;
8397;SDS011;4236;54.504;9.588;2023-05-07T12:03:47;18.00;;;17.23;;
8397;SDS011;4236;54.504;9.588;2023-05-07T12:06:15;17.27;;;16.57;;
8397;SDS011;4236;54.504;9.588;2023-05-07T12:08:44;17.03;;;16.33;;
8397;SDS011;4236;54.504;9.588;2023-05-07T12:11:14;17.67;;;16.87;;
8397;SDS011;4236;54.504;9.588;2023-05-07T12:13:44;17.17;;;16.50;;
8397;SDS011;4236;54.504;9.588;2023-05-07T12:16:12;17.20;;;16.20;;
8397;SDS011;4236;54.504;9.588;2023-05-07T12:18:40;17.90;;;17.10;;
8397;SDS011;4236;54.504;9.588;2023-05-07T12:21:09;17.43;;;16.77;;
8397;SDS011;4236;54.504;9.588;2023-05-07T12:23:37;18.63;;;17.53;;
8397;SDS011;4236;54.504;9.588;2023-05-07T12:26:05;19.87;;;18.53;;
8397;SDS011;4236;54.504;9.588;2023-05-07T12:28:36;18.10;;;17.10;;
8397;SDS011;4236;54.504;9.588;2023-05-07T12:31:05;17.97;;;16.97;;
8397;SDS011;4236;54.504;9.588;2023-05-07T12:33:34;17.83;;;17.03;;
8397;SDS011;4236;54.504;9.588;2023-05-07T12:36:03;17.77;;;16.87;;
8397;SDS011;4236;54.504;9.588;2023-05-07T12:38:35;17.87;;;16.87;;
8397;SDS011;4236;54.504;9.588;2023-05-07T12:41:04;16.90;;;16.00;;
8397;SDS011;4236;54.504;9.588;2023-05-07T12:43:33;16.70;;;16.00;;
8397;SDS011;4236;54.504;9.588;2023-05-07T12:46:02;18.77;;;17.77;;
8397;SDS011;4236;54.504;9.588;2023-05-07T12:48:32;16.17;;;15.37;;
8397;SDS011;4236;54.504;9.588;2023-05-07T12:51:01;17.73;;;16.47;;
8397;SDS011;4236;54.504;9.588;2023-05-07T12:53:29;16.57;;;15.37;;
8397;SDS011;4236;54.504;9.588;2023-05-07T12:55:59;16.90;;;15.90;;
8397;SDS011;4236;54.504;9.588;2023-05-07T12:58:27;16.60;;;15.80;;
8397;SDS011;4236;54.504;9.588;2023-05-07T13:00:56;17.40;;;16.43;;
8397;SDS011;4236;54.504;9.588;2023-05-07T13:03:27;16.37;;;15.53;;
8397;SDS011;4236;54.504;9.588;2023-05-07T13:05:57;17.53;;;16.67;;
8397;SDS011;4236;54.504;9.588;2023-05-07T13:08:29;16.20;;;15.30;;
8397;SDS011;4236;54.504;9.588;2023-05-07T13:11:00;16.27;;;15.47;;
8397;SDS011;4236;54.504;9.588;2023-05-07T13:13:29;17.87;;;16.57;;
8397;SDS011;4236;54.504;9.588;2023-05-07T13:15:58;17.50;;;16.60;;
8397;SDS011;4236;54.504;9.588;2023-05-07T13:18:26;16.80;;;15.70;;
8397;SDS011;4236;54.504;9.588;2023-05-07T13:20:54;16.37;;;15.23;;
8397;SDS011;4236;54.504;9.588;2023-05-07T13:23:22;16.40;;;15.50;;
8397;SDS011;4236;54.504;9.588;2023-05-07T13:25:51;16.87;;;15.70;;
8397;SDS011;4236;54.504;9.588;2023-05-07T13:28:21;16.97;;;15.93;;
8397;SDS011;4236;54.504;9.588;2023-05-07T13:30:49;17.20;;;16.13;;
8397;SDS011;4236;54.504;9.588;2023-05-07T13:33:18;16.50;;;15.50;;
8397;SDS011;4236;54.504;9.588;2023-05-07T13:35:45;16.70;;;15.40;;
8397;SDS011;4236;54.504;9.588;2023-05-07T13:38:13;16.37;;;15.30;;
8397;SDS011;4236;54.504;9.588;2023-05-07T13:40:42;16.17;;;15.30;;
8397;SDS011;4236;54.504;9.588;2023-05-07T13:43:10;16.27;;;15.47;;
8397;SDS011;4236;54.504;9.588;2023-05-07T13:45:39;17.57;;;16.23;;
8397;SDS011;4236;54.504;9.588;2023-05-07T13:48:06;16.00;;;14.90;;
8397;SDS011;4236;54.504;9.588;2023-05-07T13:50:34;16.67;;;15.53;;
8397;SDS011;4236;54.504;9.588;2023-05-07T13:53:02;15.37;;;14.47;;
8397;SDS011;4236;54.504;9.588;2023-05-07T13:55:30;15.77;;;14.67;;
8397;SDS011;4236;54.504;9.588;2023-05-07T13:57:58;15.57;;;14.63;;
8397;SDS011;4236;54.504;9.588;2023-05-07T14:00:27;16.63;;;15.43;;
8397;SDS011;4236;54.504;9.588;2023-05-07T14:02:57;16.00;;;14.87;;
8397;SDS011;4236;54.504;9.588;2023-05-07T14:05:25;15.37;;;14.37;;
8397;SDS011;4236;54.504;9.588;2023-05-07T14:07:54;15.73;;;14.53;;
8397;SDS011;4236;54.504;9.588;2023-05-07T14:10:22;16.57;;;15.63;;
8397;SDS011;4236;54.504;9.588;2023-05-07T14:12:51;16.77;;;15.47;;
8397;SDS011;4236;54.504;9.588;2023-05-07T14:15:20;16.07;;;14.87;;
8397;SDS011;4236;54.504;9.588;2023-05-07T14:17:48;17.03;;;15.70;;
8397;SDS011;4236;54.504;9.588;2023-05-07T14:20:17;16.67;;;15.37;;
8397;SDS011;4236;54.504;9.588;2023-05-07T14:22:45;15.23;;;14.23;;
8397;SDS011;4236;54.504;9.588;2023-05-07T14:25:12;16.17;;;14.90;;
8397;SDS011;4236;54.504;9.588;2023-05-07T14:27:40;15.80;;;14.60;;
8397;SDS011;4236;54.504;9.588;2023-05-07T14:30:08;15.57;;;14.23;;
8397;SDS011;4236;54.504;9.588;2023-05-07T14:32:36;15.93;;;14.83;;
8397;SDS011;4236;54.504;9.588;2023-05-07T14:35:04;15.47;;;14.57;;
8397;SDS011;4236;54.504;9.588;2023-05-07T14:37:33;15.57;;;14.10;;
8397;SDS011;4236;54.504;9.588;2023-05-07T14:40:01;15.67;;;14.07;;
8397;SDS011;4236;54.504;9.588;2023-05-07T14:42:29;13.97;;;12.67;;
8397;SDS011;4236;54.504;9.588;2023-05-07T14:44:56;14.13;;;13.23;;
8397;SDS011;4236;54.504;9.588;2023-05-07T14:47:24;14.30;;;13.30;;
8397;SDS011;4236;54.504;9.588;2023-05-07T14:49:52;14.87;;;13.63;;
8397;SDS011;4236;54.504;9.588;2023-05-07T14:52:20;14.67;;;13.60;;
8397;SDS011;4236;54.504;9.588;2023-05-07T14:54:49;13.90;;;13.00;;
8397;SDS011;4236;54.504;9.588;2023-05-07T14:57:17;15.10;;;13.97;;
8397;SDS011;4236;54.504;9.588;2023-05-07T14:59:45;15.50;;;14.20;;
8397;SDS011;4236;54.504;9.588;2023-05-07T15:02:13;12.73;;;12.03;;
8397;SDS011;4236;54.504;9.588;2023-05-07T15:04:41;13.27;;;12.33;;
8397;SDS011;4236;54.504;9.588;2023-05-07T15:07:12;12.93;;;11.97;;
8397;SDS011;4236;54.504;9.588;2023-05-07T15:09:41;14.40;;;13.60;;
8397;SDS011;4236;54.504;9.588;2023-05-07T15:12:10;14.87;;;13.60;;